Latest Weather Observations for Sydney Airport

IDN60801

Issued at 1:32 pm EDT Thursday 11 February 2016 (issued every 30 minutes, with the page automatically refreshed every 10 minutes)

About weather observations | Map of weather stations | Latest weather observations for NSW | Other Formats
Station Details ID: 066037 Name: SYDNEY AIRPORT AMO Lat: -33.95 Lon: 151.17 Height: 6.0 m
Data from the previous 72 hours. | See also: Recent months at Sydney Airport
Date/Time
EDT
Temp
°C
App
Temp
°C
Dew
Point
Rel
Hum
%
Delta-T
°C
Wind Press
QNH
hPa
Press
MSL
hPa
Rain
since 9 am
mm
Dir
 
Spd
km/h
Gust
km/h
Spd
kts
Gust
kts
11/01:00pm 27.0 26.2 17.2 55 6.1 E 17 26 9 14 1015.0 1015.0 0.0
11/12:30pm 27.3 26.5 17.2 54 6.3 E 17 24 9 13 1015.2 1015.2 0.0
11/12:00pm 26.9 26.2 17.3 55 6.0 E 17 26 9 14 1015.4 1015.4 0.0
11/11:30am 26.6 25.8 16.2 52 6.4 NE 15 32 8 17 1015.5 1015.5 0.0
11/11:00am 27.0 26.2 16.1 51 6.7 ENE 15 19 8 10 1015.5 1015.5 0.0
11/10:30am 27.3 27.6 15.9 49 7.0 N 9 15 5 8 1015.5 1015.5 0.0
11/10:00am 26.4 26.8 16.3 53 6.2 SE 9 13 5 7 1015.6 1015.6 0.0
11/09:30am 25.7 26.6 16.6 57 5.6 SSE 7 13 4 7 1015.6 1015.6 0.0
11/09:00am 24.2 25.3 18.8 72 3.4 SW 11 15 6 8 1015.7 1015.7 0.0
11/08:30am 24.7 26.0 18.4 68 4.0 WSW 9 15 5 8 1015.5 1015.5 0.0
11/08:00am 22.5 24.0 18.9 80 2.3 WSW 9 13 5 7 1015.2 1015.2 0.0
11/07:30am 21.7 23.3 18.3 81 2.1 W 7 11 4 6 1014.7 1014.7 0.0
11/07:00am 20.8 23.3 18.1 84 1.7 NW 2 7 1 4 1014.3 1014.3 0.0
11/06:30am 20.7 22.2 18.0 84 1.7 WSW 7 9 4 5 1013.9 1013.9 0.0
11/06:00am 20.6 22.0 17.8 84 1.7 WSW 7 11 4 6 1013.8 1013.8 0.0
11/05:30am 20.5 22.1 17.9 85 1.6 WNW 6 7 3 4 1013.5 1013.5 0.0
11/05:00am 21.2 22.7 18.0 82 2.0 NW 7 9 4 5 1013.2 1013.2 0.0
11/04:30am 21.1 22.6 18.0 82 1.9 NW 7 9 4 5 1013.0 1013.0 0.0
11/04:00am 21.8 22.9 18.1 79 2.3 NW 9 9 5 5 1013.0 1013.0 0.0
11/03:30am 21.8 23.5 18.1 79 2.3 NNW 6 7 3 4 1012.9 1012.9 0.0
11/03:00am 22.4 23.2 18.1 76 2.7 NNE 11 13 6 7 1013.1 1013.1 0.0
11/02:30am 23.1 23.9 18.1 73 3.1 NNE 11 15 6 8 1013.4 1013.4 0.0
11/02:00am 23.1 24.2 18.0 73 3.2 NE 9 13 5 7 1013.4 1013.4 0.0
11/01:30am 23.1 23.7 17.8 72 3.3 NE 11 15 6 8 1013.6 1013.6 0.0
11/01:00am 23.5 23.6 17.4 68 3.8 NE 13 17 7 9 1013.7 1013.7 0.0
11/12:30am 24.0 23.6 17.2 65 4.2 NNE 15 19 8 10 1013.9 1013.9 0.0
11/12:00am 23.8 23.5 17.3 67 4.0 NE 15 19 8 10 1014.1 1014.1 0.0
 
Date/Time
EDT
Temp
°C
App
Temp
°C
Dew
Point
Rel
Hum
%
Delta-T
°C
Wind Press
QNH
hPa
Press
MSL
hPa
Rain
since 9 am
mm
Dir
 
Spd
km/h
Gust
km/h
Spd
kts
Gust
kts
10/11:30pm 24.1 22.8 17.3 65 4.2 NNE 20 30 11 16 1014.0 1014.0 0.0
10/11:00pm 24.2 20.9 16.9 63 4.5 NE 30 37 16 20 1013.9 1013.9 0.0
10/10:30pm 24.3 20.6 17.0 63 4.5 NE 32 39 17 21 1013.9 1013.9 0.0
10/10:00pm 24.4 21.1 17.1 63 4.5 NE 30 41 16 22 1013.8 1013.8 0.0
10/09:30pm 24.5 21.3 17.2 63 4.5 NE 30 37 16 20 1013.6 1013.6 0.0
10/09:00pm 24.8 21.3 17.4 63 4.6 NE 32 41 17 22 1013.6 1013.6 0.0
10/08:30pm 25.0 22.3 18.4 66 4.2 NE 30 39 16 21 1013.4 1013.4 0.0
10/08:00pm 25.2 22.0 18.2 65 4.4 NE 32 41 17 22 1013.1 1013.1 0.0
10/07:30pm 25.4 21.6 18.1 64 4.6 NE 35 43 19 23 1012.6 1012.6 0.0
10/07:00pm 26.0 21.5 17.4 59 5.4 NE 37 48 20 26 1012.3 1012.3 0.0
10/06:30pm 26.1 22.2 16.9 57 5.7 NE 33 39 18 21 1011.9 1011.9 0.0
10/06:00pm 27.3 22.2 15.7 49 7.1 NE 37 46 20 25 1011.9 1011.9 0.0
10/05:30pm 27.2 22.7 16.4 51 6.7 NE 35 44 19 24 1011.9 1011.9 0.0
10/05:00pm 27.9 23.1 15.7 47 7.5 NE 35 41 19 22 1011.9 1011.9 0.0
10/04:30pm 28.0 23.6 15.6 46 7.6 NE 33 41 18 22 1011.9 1011.9 0.0
10/04:00pm 28.5 24.2 15.4 45 8.0 NE 32 39 17 21 1012.1 1012.1 0.0
10/03:30pm 29.3 24.8 14.8 41 8.8 NE 32 37 17 20 1012.4 1012.4 0.0
10/03:00pm 28.8 24.2 14.6 42 8.6 NE 32 35 17 19 1012.6 1012.6 0.0
10/02:30pm 28.7 25.3 15.7 45 8.0 NE 28 37 15 20 1013.0 1013.0 0.0
10/02:00pm 28.1 23.7 14.1 42 8.4 NE 30 35 16 19 1013.4 1013.4 0.0
10/01:30pm 28.7 24.2 12.7 37 9.4 NE 28 35 15 19 1013.7 1013.7 0.0
10/01:00pm 28.3 27.7 14.7 43 8.2 NE 11 19 6 10 1014.1 1014.1 0.0
10/12:30pm 29.2 28.5 14.3 40 9.0 NNE 11 15 6 8 1014.6 1014.6 0.0
10/12:00pm 28.6 28.0 14.7 42 8.4 N 11 20 6 11 1015.0 1015.0 0.0
10/11:30am 27.1 26.6 15.0 47 7.3 NW 11 17 6 9 1015.5 1015.5 0.0
10/11:00am 26.9 26.1 16.0 51 6.7 NNW 15 22 8 12 1015.9 1015.9 0.0
10/10:30am 25.7 24.7 15.7 54 6.1 NNW 15 20 8 11 1016.2 1016.2 0.0
10/10:00am 25.6 24.9 16.5 57 5.6 N 15 20 8 11 1016.3 1016.3 0.0
10/09:30am 24.9 24.4 17.0 61 4.9 NW 15 24 8 13 1016.5 1016.5 0.0
10/09:00am 25.1 25.6 17.4 62 4.8 WNW 11 15 6 8 1016.6 1016.6 0.2
10/08:30am 23.3 23.9 17.8 71 3.4 NW 11 13 6 7 1016.5 1016.5 0.2
10/08:00am 22.2 22.7 17.5 74 2.9 NW 11 13 6 7 1016.4 1016.4 0.2
10/07:30am 21.7 22.2 17.5 77 2.6 NW 11 15 6 8 1016.4 1016.4 0.2
10/07:00am 21.7 22.3 17.7 78 2.5 NW 11 15 6 8 1016.3 1016.3 0.2
10/06:30am 21.2 21.4 17.6 80 2.2 NW 13 15 7 8 1016.2 1016.2 0.2
10/06:00am 21.1 21.6 17.5 80 2.2 N 11 13 6 7 1016.0 1016.0 0.2
10/05:30am 20.7 21.5 17.4 81 2.0 NW 9 13 5 7 1015.9 1015.9 0.2
10/05:00am 20.8 21.8 17.7 82 1.9 NNW 9 11 5 6 1015.8 1015.8 0.2
10/04:30am 20.7 21.3 17.8 83 1.8 NW 11 13 6 7 1015.8 1015.8 0.2
10/04:00am 20.6 21.2 17.8 84 1.7 NW 11 13 6 7 1015.9 1015.9 0.2
10/03:30am 21.2 22.3 18.1 82 1.9 NW 9 11 5 6 1016.0 1016.0 0.2
10/03:00am 21.2 22.8 18.3 83 1.8 WSW 7 9 4 5 1016.4 1016.4 0.2
10/02:30am 21.1 21.9 18.2 83 1.8 WSW 11 11 6 6 1016.7 1016.7 0.2
10/02:00am 21.5 23.1 18.3 82 2.0 W 7 9 4 5 1017.0 1017.0 0.2
10/01:30am 21.5 22.8 18.5 83 1.9 WSW 9 9 5 5 1017.3 1017.3 0.2
10/01:00am 22.2 25.1 18.2 78 2.5 CALM 0 0 0 0 1017.7 1017.7 0.2
10/12:30am 22.2 24.0 18.2 78 2.5 ENE 6 7 3 4 1018.0 1018.0 0.2
10/12:00am 22.3 24.0 18.1 77 2.6 ENE 6 7 3 4 1018.3 1018.3 0.2
 
Date/Time
EDT
Temp
°C
App
Temp
°C
Dew
Point
Rel
Hum
%
Delta-T
°C
Wind Press
QNH
hPa
Press
MSL
hPa
Rain
since 9 am
mm
Dir
 
Spd
km/h
Gust
km/h
Spd
kts
Gust
kts
09/11:30pm 22.4 23.9 18.1 76 2.7 ENE 7 7 4 4 1018.6 1018.6 0.2
09/11:00pm 22.5 23.7 18.2 76 2.7 ENE 9 9 5 5 1019.0 1019.0 0.2
09/10:30pm 22.6 23.7 17.9 75 2.9 E 9 11 5 6 1019.2 1019.2 0.2
09/10:00pm 22.7 23.8 17.9 74 3.0 E 9 13 5 7 1019.2 1019.2 0.2
09/09:30pm 22.8 23.8 17.8 73 3.1 ESE 9 13 5 7 1019.2 1019.2 0.2
09/09:00pm 22.9 23.1 17.7 72 3.2 SE 13 15 7 8 1019.1 1019.1 0.2
09/08:30pm 23.0 23.1 17.5 71 3.4 SE 13 17 7 9 1018.9 1018.9 0.2
09/08:00pm 23.2 22.4 17.2 69 3.7 SE 17 19 9 10 1018.9 1018.9 0.2
09/07:30pm 23.6 22.6 16.7 65 4.2 SE 17 24 9 13 1018.8 1018.8 0.2
09/07:00pm 24.0 22.9 17.4 66 4.1 SE 19 22 10 12 1018.7 1018.7 0.2
09/06:30pm 24.3 22.8 16.8 63 4.6 SE 20 24 11 13 1018.4 1018.4 0.2
09/06:00pm 24.7 23.2 16.4 60 5.1 SE 19 26 10 14 1018.4 1018.4 0.2
09/05:30pm 24.7 23.0 16.2 59 5.2 SE 20 28 11 15 1018.4 1018.4 0.2
09/05:00pm 24.7 22.1 15.8 57 5.4 SE 24 30 13 16 1018.5 1018.5 0.2
09/04:30pm 25.6 23.5 16.3 56 5.7 SSE 22 28 12 15 1018.7 1018.7 0.2
09/04:00pm 25.5 22.7 15.4 53 6.1 SSE 24 33 13 18 1019.0 1019.0 0.2
09/03:30pm 25.8 23.4 16.3 55 5.8 SSE 24 32 13 17 1019.4 1019.4 0.2
09/03:00pm 25.1 22.6 16.1 57 5.5 SSE 24 30 13 16 1019.7 1019.7 0.2
09/02:30pm 24.7 21.2 14.4 52 6.1 SSE 26 32 14 17 1020.0 1020.0 0.2
09/02:00pm 24.4 21.2 16.2 60 5.0 S 28 33 15 18 1020.3 1020.3 0.2
09/01:30pm 24.1 20.8 16.0 60 4.9 S 28 35 15 19 1020.6 1020.6 0.2
09/01:00pm 24.2 21.2 15.9 59 5.0 S 26 33 14 18 1020.8 1020.8 0.2
09/12:30pm 24.3 20.9 15.9 59 5.1 SSE 28 33 15 18 1020.9 1020.9 0.2
09/12:00pm 24.3 20.9 16.8 63 4.6 S 30 52 16 28 1021.1 1021.1 0.2
09/11:52am 25.0 20.9 15.9 57 5.5 S 32 52 17 28 1021.1 1021.1 0.2
09/11:30am 24.2 21.2 17.8 67 4.0 S 30 35 16 19 1021.1 1021.1 0.0
09/11:00am 24.2 21.7 18.0 68 3.9 S 28 33 15 18 1021.2 1021.2 0.0
09/10:30am 23.7 20.9 17.2 67 4.0 S 28 35 15 19 1021.2 1021.2 0.0
09/10:00am 23.3 20.3 17.7 71 3.5 S 30 35 16 19 1021.2 1021.2 0.0
09/09:30am 23.1 20.3 18.1 73 3.1 SSE 30 39 16 21 1021.0 1021.0 0.0
09/09:00am 22.9 19.8 18.4 76 2.8 S 32 37 17 20 1020.8 1020.8 0.2
09/08:30am 22.9 20.4 18.9 78 2.5 S 30 37 16 20 1020.5 1020.5 0.2
09/08:00am 22.8 21.4 18.8 78 2.5 S 24 32 13 17 1020.2 1020.2 0.2
09/07:30am 22.2 22.4 19.4 84 1.8 S 17 33 9 18 1019.8 1019.8 0.2
09/07:00am 21.7 22.6 19.3 86 1.5 SSE 13 17 7 9 1019.6 1019.6 0.2
09/06:30am 22.2 22.3 19.2 83 1.9 SW 17 20 9 11 1019.2 1019.2 0.0
09/06:00am 22.3 22.3 19.0 81 2.1 SW 17 22 9 12 1018.8 1018.8 0.0
09/05:30am 22.2 23.0 19.0 82 2.0 SW 13 17 7 9 1018.5 1018.5 0.0
09/05:00am 22.3 22.7 19.0 81 2.1 SW 15 19 8 10 1018.5 1018.5 0.0
09/04:30am 22.9 23.3 18.1 74 3.0 S 13 17 7 9 1018.4 1018.4 0.0
09/04:00am 22.7 22.5 18.4 76 2.7 S 17 24 9 13 1018.5 1018.5 0.0
09/03:30am 22.9 22.4 17.7 72 3.2 SSE 17 22 9 12 1018.6 1018.6 0.0
09/03:00am 22.9 23.0 19.1 79 2.4 SSE 17 22 9 12 1018.7 1018.7 0.0
09/02:30am 22.7 23.5 19.1 80 2.3 S 13 15 7 8 1018.8 1018.8 0.0
09/02:00am 22.7 22.5 18.4 76 2.7 SSE 17 20 9 11 1018.9 1018.9 0.0
09/01:30am 23.1 23.3 18.5 75 2.9 SSE 15 19 8 10 1019.2 1019.2 0.0
09/01:00am 23.1 23.4 18.8 77 2.7 SSE 15 17 8 9 1019.3 1019.3 0.0
09/12:30am 22.9 22.8 18.8 77 2.6 SE 17 19 9 10 1019.4 1019.4 0.0
09/12:00am 22.9 22.9 18.9 78 2.5 SE 17 19 9 10 1019.4 1019.4 0.0
 
Date/Time
EDT
Temp
°C
App
Temp
°C
Dew
Point
Rel
Hum
%
Delta-T
°C
Wind Press
QNH
hPa
Press
MSL
hPa
Rain
since 9 am
mm
Dir
 
Spd
km/h
Gust
km/h
Spd
kts
Gust
kts
08/11:30pm 23.2 23.4 19.4 79 2.4 SSE 17 20 9 11 1019.4 1019.4 0.0
08/11:00pm 23.3 23.7 19.0 77 2.7 SSE 15 17 8 9 1019.5 1019.5 0.0
08/10:30pm 23.3 23.4 19.2 78 2.6 SSE 17 20 9 11 1019.5 1019.5 0.0
08/10:00pm 23.2 23.6 19.1 78 2.6 SE 15 19 8 10 1019.3 1019.3 0.0
08/09:30pm 23.0 23.2 18.5 76 2.8 SE 15 19 8 10 1019.0 1019.0 0.0
08/09:00pm 23.2 24.0 19.1 78 2.6 SE 13 15 7 8 1018.7 1018.7 0.0
08/08:30pm 23.5 23.9 19.1 76 2.8 SE 15 17 8 9 1018.5 1018.5 0.0
08/08:00pm 23.6 24.1 19.2 76 2.8 SE 15 19 8 10 1018.3 1018.3 0.0
08/07:30pm 24.0 24.0 19.0 73 3.2 SE 17 19 9 10 1018.0 1018.0 0.0
08/07:00pm 24.6 24.6 18.9 70 3.6 SE 17 19 9 10 1017.7 1017.7 0.0
08/06:30pm 24.9 24.9 18.9 69 3.8 SE 17 20 9 11 1017.4 1017.4 0.0
08/06:00pm 25.3 25.2 18.7 67 4.2 SE 17 22 9 12 1017.5 1017.5 0.0
08/05:30pm 25.4 24.6 18.1 64 4.6 SE 19 22 10 12 1017.5 1017.5 0.0
08/05:00pm 25.4 24.5 18.3 65 4.5 SE 20 26 11 14 1017.7 1017.7 0.0
08/04:30pm 25.7 25.1 18.8 65 4.4 SE 20 28 11 15 1017.7 1017.7 0.0
08/04:00pm 25.6 24.1 18.5 65 4.5 SE 24 28 13 15 1017.8 1017.8 0.0
08/03:30pm 26.1 24.9 18.4 62 4.9 SE 22 30 12 16 1017.7 1017.7 0.0
08/03:00pm 26.7 25.8 18.2 59 5.4 SE 20 26 11 14 1018.0 1018.0 0.0
08/02:30pm 26.2 25.1 17.2 57 5.6 SE 19 22 10 12 1018.2 1018.2 0.0
08/02:00pm 25.7 24.5 17.5 60 5.1 ESE 20 24 11 13 1018.4 1018.4 0.0

Other Formats:

Comma delimited format used in spreadsheet applications
http://www.bom.gov.au/fwo/IDN60801/IDN60801.94767.axf

JavaScript Object Notation format (JSON) in row-major order
http://www.bom.gov.au/fwo/IDN60801/IDN60801.94767.json